sensor_id;sensor_type;location;lat;lon;timestamp;P1;durP1;ratioP1;P2;durP2;ratioP2
67049;SDS011;53955;52.442;13.284;2023-04-01T00:01:13;3.37;;;1.80;;
67049;SDS011;53955;52.442;13.284;2023-04-01T00:03:41;3.40;;;1.80;;
67049;SDS011;53955;52.442;13.284;2023-04-01T00:06:08;4.67;;;1.90;;
67049;SDS011;53955;52.442;13.284;2023-04-01T00:08:37;3.65;;;1.80;;
67049;SDS011;53955;52.442;13.284;2023-04-01T00:11:03;3.17;;;1.80;;
67049;SDS011;53955;52.442;13.284;2023-04-01T00:13:30;3.07;;;1.67;;
67049;SDS011;53955;52.442;13.284;2023-04-01T00:15:58;5.43;;;2.10;;
67049;SDS011;53955;52.442;13.284;2023-04-01T00:18:26;3.70;;;1.98;;
67049;SDS011;53955;52.442;13.284;2023-04-01T00:20:53;3.58;;;1.63;;
67049;SDS011;53955;52.442;13.284;2023-04-01T00:23:20;4.35;;;2.15;;
67049;SDS011;53955;52.442;13.284;2023-04-01T00:25:47;4.90;;;1.90;;
67049;SDS011;53955;52.442;13.284;2023-04-01T00:28:14;2.33;;;1.67;;
67049;SDS011;53955;52.442;13.284;2023-04-01T00:30:41;3.90;;;1.93;;
67049;SDS011;53955;52.442;13.284;2023-04-01T00:33:09;2.95;;;2.13;;
67049;SDS011;53955;52.442;13.284;2023-04-01T00:35:36;4.23;;;1.80;;
67049;SDS011;53955;52.442;13.284;2023-04-01T00:38:03;4.97;;;1.80;;
67049;SDS011;53955;52.442;13.284;2023-04-01T00:40:31;2.70;;;1.60;;
67049;SDS011;53955;52.442;13.284;2023-04-01T00:42:59;5.13;;;2.00;;
67049;SDS011;53955;52.442;13.284;2023-04-01T00:45:28;4.43;;;1.57;;
67049;SDS011;53955;52.442;13.284;2023-04-01T00:47:58;3.27;;;2.00;;
67049;SDS011;53955;52.442;13.284;2023-04-01T00:50:28;4.27;;;1.80;;
67049;SDS011;53955;52.442;13.284;2023-04-01T00:52:57;3.40;;;1.87;;
67049;SDS011;53955;52.442;13.284;2023-04-01T00:55:25;3.63;;;1.83;;
67049;SDS011;53955;52.442;13.284;2023-04-01T00:57:55;4.30;;;2.23;;
67049;SDS011;53955;52.442;13.284;2023-04-01T01:00:25;5.13;;;2.13;;
67049;SDS011;53955;52.442;13.284;2023-04-01T01:02:52;4.73;;;2.27;;
67049;SDS011;53955;52.442;13.284;2023-04-01T01:05:20;3.03;;;1.80;;
67049;SDS011;53955;52.442;13.284;2023-04-01T01:07:54;6.60;;;1.77;;
67049;SDS011;53955;52.442;13.284;2023-04-01T01:10:30;3.03;;;1.93;;
67049;SDS011;53955;52.442;13.284;2023-04-01T01:13:00;3.43;;;1.87;;
67049;SDS011;53955;52.442;13.284;2023-04-01T01:15:32;4.27;;;1.80;;
67049;SDS011;53955;52.442;13.284;2023-04-01T01:18:03;3.70;;;1.77;;
67049;SDS011;53955;52.442;13.284;2023-04-01T01:20:53;2.90;;;1.90;;
67049;SDS011;53955;52.442;13.284;2023-04-01T01:23:38;7.17;;;2.03;;
67049;SDS011;53955;52.442;13.284;2023-04-01T01:26:57;3.10;;;2.07;;
67049;SDS011;53955;52.442;13.284;2023-04-01T01:29:34;3.13;;;1.73;;
67049;SDS011;53955;52.442;13.284;2023-04-01T01:32:16;3.77;;;1.70;;
67049;SDS011;53955;52.442;13.284;2023-04-01T01:34:53;2.10;;;1.60;;
67049;SDS011;53955;52.442;13.284;2023-04-01T01:37:30;3.90;;;2.27;;
67049;SDS011;53955;52.442;13.284;2023-04-01T01:39:58;2.90;;;1.80;;
67049;SDS011;53955;52.442;13.284;2023-04-01T01:42:26;4.53;;;2.47;;
67049;SDS011;53955;52.442;13.284;2023-04-01T01:44:57;3.27;;;1.70;;
67049;SDS011;53955;52.442;13.284;2023-04-01T01:47:25;3.70;;;1.90;;
67049;SDS011;53955;52.442;13.284;2023-04-01T01:49:54;5.57;;;2.00;;
67049;SDS011;53955;52.442;13.284;2023-04-01T01:52:23;3.87;;;2.00;;
67049;SDS011;53955;52.442;13.284;2023-04-01T01:54:50;6.50;;;2.30;;
67049;SDS011;53955;52.442;13.284;2023-04-01T01:57:19;2.77;;;1.90;;
67049;SDS011;53955;52.442;13.284;2023-04-01T01:59:49;5.33;;;2.00;;
67049;SDS011;53955;52.442;13.284;2023-04-01T02:02:18;3.80;;;1.90;;
67049;SDS011;53955;52.442;13.284;2023-04-01T02:04:46;3.53;;;2.37;;
67049;SDS011;53955;52.442;13.284;2023-04-01T02:07:14;4.60;;;2.20;;
67049;SDS011;53955;52.442;13.284;2023-04-01T02:09:46;5.23;;;2.07;;
67049;SDS011;53955;52.442;13.284;2023-04-01T02:12:14;4.00;;;2.10;;
67049;SDS011;53955;52.442;13.284;2023-04-01T02:14:43;4.97;;;2.03;;
67049;SDS011;53955;52.442;13.284;2023-04-01T02:17:15;3.73;;;2.40;;
67049;SDS011;53955;52.442;13.284;2023-04-01T02:19:47;4.70;;;2.00;;
67049;SDS011;53955;52.442;13.284;2023-04-01T02:22:18;5.43;;;1.90;;
67049;SDS011;53955;52.442;13.284;2023-04-01T02:24:49;4.63;;;2.30;;
67049;SDS011;53955;52.442;13.284;2023-04-01T02:27:18;3.47;;;2.30;;
67049;SDS011;53955;52.442;13.284;2023-04-01T02:29:45;5.17;;;2.30;;
67049;SDS011;53955;52.442;13.284;2023-04-01T02:32:12;3.03;;;2.10;;
67049;SDS011;53955;52.442;13.284;2023-04-01T02:34:40;5.00;;;2.20;;
67049;SDS011;53955;52.442;13.284;2023-04-01T02:37:08;3.87;;;2.30;;
67049;SDS011;53955;52.442;13.284;2023-04-01T02:39:35;2.90;;;2.00;;
67049;SDS011;53955;52.442;13.284;2023-04-01T02:42:03;4.47;;;2.10;;
67049;SDS011;53955;52.442;13.284;2023-04-01T02:44:29;4.50;;;2.30;;
67049;SDS011;53955;52.442;13.284;2023-04-01T02:46:56;4.93;;;2.20;;
67049;SDS011;53955;52.442;13.284;2023-04-01T02:49:23;3.13;;;2.10;;
67049;SDS011;53955;52.442;13.284;2023-04-01T02:51:49;4.03;;;2.53;;
67049;SDS011;53955;52.442;13.284;2023-04-01T02:54:16;4.40;;;2.20;;
67049;SDS011;53955;52.442;13.284;2023-04-01T02:56:43;4.47;;;2.00;;
67049;SDS011;53955;52.442;13.284;2023-04-01T02:59:11;5.03;;;2.17;;
67049;SDS011;53955;52.442;13.284;2023-04-01T03:01:38;3.23;;;1.70;;
67049;SDS011;53955;52.442;13.284;2023-04-01T03:04:05;4.27;;;2.37;;
67049;SDS011;53955;52.442;13.284;2023-04-01T03:06:31;2.93;;;1.97;;
67049;SDS011;53955;52.442;13.284;2023-04-01T03:08:58;5.43;;;2.27;;
67049;SDS011;53955;52.442;13.284;2023-04-01T03:11:24;4.30;;;2.43;;
67049;SDS011;53955;52.442;13.284;2023-04-01T03:13:51;4.30;;;2.07;;
67049;SDS011;53955;52.442;13.284;2023-04-01T03:16:19;3.60;;;1.97;;
67049;SDS011;53955;52.442;13.284;2023-04-01T03:18:46;3.63;;;2.17;;
67049;SDS011;53955;52.442;13.284;2023-04-01T03:21:15;3.30;;;1.90;;
67049;SDS011;53955;52.442;13.284;2023-04-01T03:23:43;5.03;;;2.13;;
67049;SDS011;53955;52.442;13.284;2023-04-01T03:26:09;4.03;;;1.90;;
67049;SDS011;53955;52.442;13.284;2023-04-01T03:28:36;3.80;;;2.03;;
67049;SDS011;53955;52.442;13.284;2023-04-01T03:31:03;5.13;;;2.30;;
67049;SDS011;53955;52.442;13.284;2023-04-01T03:33:31;4.13;;;2.40;;
67049;SDS011;53955;52.442;13.284;2023-04-01T03:35:58;3.27;;;2.10;;
67049;SDS011;53955;52.442;13.284;2023-04-01T03:38:25;3.23;;;2.20;;
67049;SDS011;53955;52.442;13.284;2023-04-01T03:40:52;3.73;;;2.07;;
67049;SDS011;53955;52.442;13.284;2023-04-01T03:43:18;3.80;;;1.87;;
67049;SDS011;53955;52.442;13.284;2023-04-01T03:45:45;6.70;;;2.20;;
67049;SDS011;53955;52.442;13.284;2023-04-01T03:48:13;5.03;;;2.53;;
67049;SDS011;53955;52.442;13.284;2023-04-01T03:50:41;5.50;;;1.93;;
67049;SDS011;53955;52.442;13.284;2023-04-01T03:53:08;3.87;;;2.07;;
67049;SDS011;53955;52.442;13.284;2023-04-01T03:55:35;4.20;;;2.27;;
67049;SDS011;53955;52.442;13.284;2023-04-01T03:58:02;3.47;;;2.07;;
67049;SDS011;53955;52.442;13.284;2023-04-01T04:00:29;3.87;;;2.00;;
67049;SDS011;53955;52.442;13.284;2023-04-01T04:02:56;7.27;;;1.93;;
67049;SDS011;53955;52.442;13.284;2023-04-01T04:05:22;4.10;;;2.37;;
67049;SDS011;53955;52.442;13.284;2023-04-01T04:07:51;4.37;;;2.00;;
67049;SDS011;53955;52.442;13.284;2023-04-01T04:10:18;4.27;;;1.80;;
67049;SDS011;53955;52.442;13.284;2023-04-01T04:12:45;5.57;;;2.20;;
67049;SDS011;53955;52.442;13.284;2023-04-01T04:15:12;2.93;;;1.93;;
67049;SDS011;53955;52.442;13.284;2023-04-01T04:17:38;3.83;;;2.00;;
67049;SDS011;53955;52.442;13.284;2023-04-01T04:20:05;4.37;;;2.37;;
67049;SDS011;53955;52.442;13.284;2023-04-01T04:22:33;3.30;;;2.00;;
67049;SDS011;53955;52.442;13.284;2023-04-01T04:25:01;4.77;;;2.00;;
67049;SDS011;53955;52.442;13.284;2023-04-01T04:27:28;5.50;;;2.40;;
67049;SDS011;53955;52.442;13.284;2023-04-01T04:29:54;4.17;;;2.13;;
67049;SDS011;53955;52.442;13.284;2023-04-01T04:32:21;4.50;;;1.77;;
67049;SDS011;53955;52.442;13.284;2023-04-01T04:34:48;3.50;;;1.93;;
67049;SDS011;53955;52.442;13.284;2023-04-01T04:37:14;4.50;;;2.13;;
67049;SDS011;53955;52.442;13.284;2023-04-01T04:39:41;3.87;;;2.00;;
67049;SDS011;53955;52.442;13.284;2023-04-01T04:42:09;4.67;;;2.27;;
67049;SDS011;53955;52.442;13.284;2023-04-01T04:44:35;4.03;;;2.10;;
67049;SDS011;53955;52.442;13.284;2023-04-01T04:47:02;4.27;;;2.07;;
67049;SDS011;53955;52.442;13.284;2023-04-01T04:49:29;5.07;;;2.00;;
67049;SDS011;53955;52.442;13.284;2023-04-01T04:51:55;3.83;;;1.90;;
67049;SDS011;53955;52.442;13.284;2023-04-01T04:54:22;4.80;;;2.33;;
67049;SDS011;53955;52.442;13.284;2023-04-01T04:56:50;4.50;;;1.83;;
67049;SDS011;53955;52.442;13.284;2023-04-01T04:59:20;3.40;;;1.90;;
67049;SDS011;53955;52.442;13.284;2023-04-01T05:01:46;2.97;;;1.67;;
67049;SDS011;53955;52.442;13.284;2023-04-01T05:04:13;3.80;;;2.17;;
67049;SDS011;53955;52.442;13.284;2023-04-01T05:06:39;5.40;;;1.80;;
67049;SDS011;53955;52.442;13.284;2023-04-01T05:09:06;4.73;;;2.30;;
67049;SDS011;53955;52.442;13.284;2023-04-01T05:11:32;4.83;;;2.30;;
67049;SDS011;53955;52.442;13.284;2023-04-01T05:13:59;4.20;;;2.00;;
67049;SDS011;53955;52.442;13.284;2023-04-01T05:16:27;4.00;;;1.90;;
67049;SDS011;53955;52.442;13.284;2023-04-01T05:18:56;4.03;;;2.00;;
67049;SDS011;53955;52.442;13.284;2023-04-01T05:21:22;7.13;;;2.20;;
67049;SDS011;53955;52.442;13.284;2023-04-01T05:23:49;5.90;;;2.43;;
67049;SDS011;53955;52.442;13.284;2023-04-01T05:26:15;7.13;;;2.40;;
67049;SDS011;53955;52.442;13.284;2023-04-01T05:28:42;3.50;;;2.07;;
67049;SDS011;53955;52.442;13.284;2023-04-01T05:31:09;6.23;;;2.30;;
67049;SDS011;53955;52.442;13.284;2023-04-01T05:33:37;5.73;;;2.40;;
67049;SDS011;53955;52.442;13.284;2023-04-01T05:36:07;6.63;;;2.10;;
67049;SDS011;53955;52.442;13.284;2023-04-01T05:38:35;5.47;;;2.77;;
67049;SDS011;53955;52.442;13.284;2023-04-01T05:41:02;4.80;;;2.37;;
67049;SDS011;53955;52.442;13.284;2023-04-01T05:43:29;3.73;;;2.53;;
67049;SDS011;53955;52.442;13.284;2023-04-01T05:45:55;11.13;;;3.13;;
67049;SDS011;53955;52.442;13.284;2023-04-01T05:48:22;6.33;;;2.50;;
67049;SDS011;53955;52.442;13.284;2023-04-01T05:50:50;7.60;;;2.27;;
67049;SDS011;53955;52.442;13.284;2023-04-01T05:53:16;6.20;;;2.70;;
67049;SDS011;53955;52.442;13.284;2023-04-01T05:55:43;5.93;;;2.17;;
67049;SDS011;53955;52.442;13.284;2023-04-01T05:58:10;5.30;;;2.53;;
67049;SDS011;53955;52.442;13.284;2023-04-01T06:00:36;5.13;;;2.20;;
67049;SDS011;53955;52.442;13.284;2023-04-01T06:03:03;4.27;;;2.40;;
67049;SDS011;53955;52.442;13.284;2023-04-01T06:05:38;6.60;;;2.83;;
67049;SDS011;53955;52.442;13.284;2023-04-01T06:08:10;5.93;;;2.50;;
67049;SDS011;53955;52.442;13.284;2023-04-01T06:10:41;4.20;;;2.03;;
67049;SDS011;53955;52.442;13.284;2023-04-01T06:13:18;3.67;;;2.07;;
67049;SDS011;53955;52.442;13.284;2023-04-01T06:15:57;6.53;;;2.50;;
67049;SDS011;53955;52.442;13.284;2023-04-01T06:18:45;7.03;;;2.10;;
67049;SDS011;53955;52.442;13.284;2023-04-01T06:21:33;6.90;;;2.63;;
67049;SDS011;53955;52.442;13.284;2023-04-01T06:24:22;6.13;;;2.60;;
67049;SDS011;53955;52.442;13.284;2023-04-01T06:27:13;4.63;;;2.33;;
67049;SDS011;53955;52.442;13.284;2023-04-01T06:29:55;8.20;;;2.50;;
67049;SDS011;53955;52.442;13.284;2023-04-01T06:32:34;4.57;;;2.43;;
67049;SDS011;53955;52.442;13.284;2023-04-01T06:35:25;3.80;;;2.00;;
67049;SDS011;53955;52.442;13.284;2023-04-01T06:38:14;4.50;;;2.30;;
67049;SDS011;53955;52.442;13.284;2023-04-01T06:43:53;6.97;;;2.60;;
67049;SDS011;53955;52.442;13.284;2023-04-01T06:46:29;4.50;;;2.10;;
67049;SDS011;53955;52.442;13.284;2023-04-01T06:49:07;4.80;;;2.40;;
67049;SDS011;53955;52.442;13.284;2023-04-01T06:51:47;3.83;;;2.07;;
67049;SDS011;53955;52.442;13.284;2023-04-01T06:54:24;3.93;;;1.80;;
67049;SDS011;53955;52.442;13.284;2023-04-01T06:56:57;4.27;;;2.17;;
67049;SDS011;53955;52.442;13.284;2023-04-01T06:59:28;4.53;;;2.17;;
67049;SDS011;53955;52.442;13.284;2023-04-01T07:01:59;3.70;;;2.33;;
67049;SDS011;53955;52.442;13.284;2023-04-01T07:04:30;6.28;;;2.00;;
67049;SDS011;53955;52.442;13.284;2023-04-01T07:06:59;5.47;;;2.08;;
67049;SDS011;53955;52.442;13.284;2023-04-01T07:09:31;5.45;;;2.53;;
67049;SDS011;53955;52.442;13.284;2023-04-01T07:12:02;3.97;;;2.20;;
67049;SDS011;53955;52.442;13.284;2023-04-01T07:14:41;4.13;;;1.77;;
67049;SDS011;53955;52.442;13.284;2023-04-01T07:17:11;5.30;;;2.10;;
67049;SDS011;53955;52.442;13.284;2023-04-01T07:19:42;5.53;;;2.20;;
67049;SDS011;53955;52.442;13.284;2023-04-01T07:22:14;3.63;;;2.00;;
67049;SDS011;53955;52.442;13.284;2023-04-01T07:24:52;6.77;;;1.73;;
67049;SDS011;53955;52.442;13.284;2023-04-01T07:27:24;5.25;;;2.35;;
67049;SDS011;53955;52.442;13.284;2023-04-01T07:29:50;4.57;;;2.38;;
67049;SDS011;53955;52.442;13.284;2023-04-01T07:32:22;3.80;;;1.45;;
67049;SDS011;53955;52.442;13.284;2023-04-01T07:35:07;4.15;;;1.80;;
67049;SDS011;53955;52.442;13.284;2023-04-01T07:37:42;4.82;;;1.80;;
67049;SDS011;53955;52.442;13.284;2023-04-01T07:40:19;2.55;;;1.50;;
67049;SDS011;53955;52.442;13.284;2023-04-01T07:43:01;6.80;;;1.80;;
67049;SDS011;53955;52.442;13.284;2023-04-01T07:50:46;3.97;;;1.98;;
67049;SDS011;53955;52.442;13.284;2023-04-01T07:55:56;3.92;;;1.70;;
67049;SDS011;53955;52.442;13.284;2023-04-01T07:58:31;4.13;;;2.13;;
67049;SDS011;53955;52.442;13.284;2023-04-01T08:01:05;2.60;;;1.60;;
67049;SDS011;53955;52.442;13.284;2023-04-01T08:03:45;5.53;;;2.00;;
67049;SDS011;53955;52.442;13.284;2023-04-01T08:06:24;4.30;;;2.13;;
67049;SDS011;53955;52.442;13.284;2023-04-01T08:08:58;5.47;;;2.05;;
67049;SDS011;53955;52.442;13.284;2023-04-01T08:14:04;4.80;;;1.80;;
67049;SDS011;53955;52.442;13.284;2023-04-01T08:16:38;4.97;;;1.90;;
67049;SDS011;53955;52.442;13.284;2023-04-01T08:19:14;5.90;;;1.97;;
67049;SDS011;53955;52.442;13.284;2023-04-01T08:21:47;2.47;;;1.58;;
67049;SDS011;53955;52.442;13.284;2023-04-01T08:24:20;4.13;;;1.70;;
67049;SDS011;53955;52.442;13.284;2023-04-01T08:26:51;3.28;;;1.52;;
67049;SDS011;53955;52.442;13.284;2023-04-01T08:29:23;3.63;;;1.70;;
67049;SDS011;53955;52.442;13.284;2023-04-01T08:32:01;4.90;;;1.48;;
67049;SDS011;53955;52.442;13.284;2023-04-01T08:34:34;5.25;;;1.80;;
67049;SDS011;53955;52.442;13.284;2023-04-01T08:37:04;5.63;;;1.70;;
67049;SDS011;53955;52.442;13.284;2023-04-01T08:39:34;3.17;;;1.55;;
67049;SDS011;53955;52.442;13.284;2023-04-01T08:42:11;6.27;;;2.07;;
67049;SDS011;53955;52.442;13.284;2023-04-01T08:44:59;3.47;;;1.70;;
67049;SDS011;53955;52.442;13.284;2023-04-01T08:47:52;3.65;;;1.80;;
67049;SDS011;53955;52.442;13.284;2023-04-01T08:53:32;4.22;;;2.03;;
67049;SDS011;53955;52.442;13.284;2023-04-01T08:56:12;1.88;;;1.50;;
67049;SDS011;53955;52.442;13.284;2023-04-01T08:58:50;3.38;;;1.90;;
67049;SDS011;53955;52.442;13.284;2023-04-01T09:01:31;3.15;;;1.55;;
67049;SDS011;53955;52.442;13.284;2023-04-01T09:07:05;3.60;;;1.20;;
67049;SDS011;53955;52.442;13.284;2023-04-01T09:09:50;5.47;;;1.40;;
67049;SDS011;53955;52.442;13.284;2023-04-01T09:12:50;4.85;;;1.30;;
67049;SDS011;53955;52.442;13.284;2023-04-01T09:15:28;3.10;;;1.25;;
67049;SDS011;53955;52.442;13.284;2023-04-01T09:18:19;3.95;;;1.63;;
67049;SDS011;53955;52.442;13.284;2023-04-01T09:23:35;1.65;;;1.33;;
67049;SDS011;53955;52.442;13.284;2023-04-01T09:26:21;2.53;;;1.98;;
67049;SDS011;53955;52.442;13.284;2023-04-01T09:34:31;4.15;;;2.67;;
67049;SDS011;53955;52.442;13.284;2023-04-01T09:37:20;5.63;;;3.40;;
67049;SDS011;53955;52.442;13.284;2023-04-01T09:39:55;5.63;;;3.50;;
67049;SDS011;53955;52.442;13.284;2023-04-01T09:42:43;6.03;;;3.77;;
67049;SDS011;53955;52.442;13.284;2023-04-01T09:45:20;5.23;;;3.30;;
67049;SDS011;53955;52.442;13.284;2023-04-01T09:47:58;5.30;;;3.50;;
67049;SDS011;53955;52.442;13.284;2023-04-01T09:50:35;8.03;;;4.20;;
67049;SDS011;53955;52.442;13.284;2023-04-01T09:53:17;5.88;;;4.05;;
67049;SDS011;53955;52.442;13.284;2023-04-01T09:56:03;7.23;;;4.60;;
67049;SDS011;53955;52.442;13.284;2023-04-01T09:58:56;7.70;;;4.30;;
67049;SDS011;53955;52.442;13.284;2023-04-01T10:05:09;7.60;;;4.33;;
67049;SDS011;53955;52.442;13.284;2023-04-01T10:07:56;6.23;;;3.80;;
67049;SDS011;53955;52.442;13.284;2023-04-01T10:10:54;5.77;;;4.00;;
67049;SDS011;53955;52.442;13.284;2023-04-01T10:13:50;10.00;;;4.70;;
67049;SDS011;53955;52.442;13.284;2023-04-01T10:19:44;5.03;;;3.80;;
67049;SDS011;53955;52.442;13.284;2023-04-01T11:09:30;8.87;;;5.63;;
67049;SDS011;53955;52.442;13.284;2023-04-01T11:12:37;7.87;;;5.17;;
67049;SDS011;53955;52.442;13.284;2023-04-01T11:18:39;7.07;;;5.30;;
67049;SDS011;53955;52.442;13.284;2023-04-01T11:21:46;6.70;;;5.00;;
67049;SDS011;53955;52.442;13.284;2023-04-01T11:24:27;8.80;;;4.63;;
67049;SDS011;53955;52.442;13.284;2023-04-01T11:27:23;7.63;;;4.57;;
67049;SDS011;53955;52.442;13.284;2023-04-01T11:30:06;6.67;;;5.13;;
67049;SDS011;53955;52.442;13.284;2023-04-01T11:32:57;6.00;;;4.33;;
67049;SDS011;53955;52.442;13.284;2023-04-01T11:35:31;6.97;;;5.10;;
67049;SDS011;53955;52.442;13.284;2023-04-01T11:38:25;5.93;;;4.10;;
67049;SDS011;53955;52.442;13.284;2023-04-01T11:41:02;5.43;;;4.23;;
67049;SDS011;53955;52.442;13.284;2023-04-01T11:43:48;5.63;;;3.90;;
67049;SDS011;53955;52.442;13.284;2023-04-01T11:46:23;5.93;;;4.43;;
67049;SDS011;53955;52.442;13.284;2023-04-01T11:48:59;5.27;;;3.43;;
67049;SDS011;53955;52.442;13.284;2023-04-01T11:51:36;4.50;;;3.00;;
67049;SDS011;53955;52.442;13.284;2023-04-01T11:57:02;7.77;;;3.70;;
67049;SDS011;53955;52.442;13.284;2023-04-01T11:59:41;3.70;;;2.90;;
67049;SDS011;53955;52.442;13.284;2023-04-01T12:02:41;5.10;;;2.80;;
67049;SDS011;53955;52.442;13.284;2023-04-01T12:10:25;4.33;;;3.20;;
67049;SDS011;53955;52.442;13.284;2023-04-01T12:12:58;3.80;;;2.47;;
67049;SDS011;53955;52.442;13.284;2023-04-01T12:15:33;4.23;;;3.03;;
67049;SDS011;53955;52.442;13.284;2023-04-01T12:18:14;3.83;;;2.53;;
67049;SDS011;53955;52.442;13.284;2023-04-01T12:20:49;3.17;;;2.40;;
67049;SDS011;53955;52.442;13.284;2023-04-01T12:23:22;3.27;;;2.67;;
67049;SDS011;53955;52.442;13.284;2023-04-01T12:26:05;5.20;;;3.13;;
67049;SDS011;53955;52.442;13.284;2023-04-01T12:28:41;4.20;;;2.80;;
67049;SDS011;53955;52.442;13.284;2023-04-01T12:31:20;4.93;;;3.00;;
67049;SDS011;53955;52.442;13.284;2023-04-01T12:34:04;5.23;;;2.80;;
67049;SDS011;53955;52.442;13.284;2023-04-01T12:37:00;4.53;;;3.03;;
67049;SDS011;53955;52.442;13.284;2023-04-01T12:39:37;4.93;;;3.50;;
67049;SDS011;53955;52.442;13.284;2023-04-01T12:42:21;4.80;;;3.40;;
67049;SDS011;53955;52.442;13.284;2023-04-01T12:45:07;4.47;;;2.93;;
67049;SDS011;53955;52.442;13.284;2023-04-01T12:47:51;4.93;;;3.50;;
67049;SDS011;53955;52.442;13.284;2023-04-01T12:50:34;5.57;;;3.93;;
67049;SDS011;53955;52.442;13.284;2023-04-01T12:53:20;5.23;;;3.90;;
67049;SDS011;53955;52.442;13.284;2023-04-01T12:56:00;5.93;;;3.87;;
67049;SDS011;53955;52.442;13.284;2023-04-01T13:01:27;6.40;;;3.70;;
67049;SDS011;53955;52.442;13.284;2023-04-01T13:04:13;5.97;;;4.27;;
67049;SDS011;53955;52.442;13.284;2023-04-01T13:09:50;7.63;;;4.50;;
67049;SDS011;53955;52.442;13.284;2023-04-01T13:12:27;7.37;;;5.50;;
67049;SDS011;53955;52.442;13.284;2023-04-01T13:15:11;6.50;;;4.70;;
67049;SDS011;53955;52.442;13.284;2023-04-01T13:17:47;6.33;;;4.67;;
67049;SDS011;53955;52.442;13.284;2023-04-01T13:20:20;6.17;;;4.60;;
67049;SDS011;53955;52.442;13.284;2023-04-01T13:23:01;7.47;;;5.20;;
67049;SDS011;53955;52.442;13.284;2023-04-01T13:25:38;6.83;;;5.03;;
67049;SDS011;53955;52.442;13.284;2023-04-01T13:28:12;7.43;;;5.77;;
67049;SDS011;53955;52.442;13.284;2023-04-01T13:30:45;8.50;;;5.07;;
67049;SDS011;53955;52.442;13.284;2023-04-01T13:33:16;6.80;;;4.87;;
67049;SDS011;53955;52.442;13.284;2023-04-01T13:35:55;9.80;;;7.03;;
67049;SDS011;53955;52.442;13.284;2023-04-01T13:38:37;10.87;;;7.87;;
67049;SDS011;53955;52.442;13.284;2023-04-01T13:41:18;13.07;;;8.80;;
67049;SDS011;53955;52.442;13.284;2023-04-01T13:43:56;10.23;;;7.90;;
67049;SDS011;53955;52.442;13.284;2023-04-01T13:46:33;10.57;;;7.83;;
67049;SDS011;53955;52.442;13.284;2023-04-01T13:49:36;10.33;;;7.47;;
67049;SDS011;53955;52.442;13.284;2023-04-01T13:52:17;9.63;;;6.83;;
67049;SDS011;53955;52.442;13.284;2023-04-01T13:54:57;10.70;;;7.53;;
67049;SDS011;53955;52.442;13.284;2023-04-01T13:57:36;10.97;;;7.27;;
67049;SDS011;53955;52.442;13.284;2023-04-01T14:00:23;11.47;;;7.20;;
67049;SDS011;53955;52.442;13.284;2023-04-01T14:03:20;9.77;;;7.17;;
67049;SDS011;53955;52.442;13.284;2023-04-01T14:08:50;8.83;;;6.57;;
67049;SDS011;53955;52.442;13.284;2023-04-01T14:11:31;9.73;;;7.30;;
67049;SDS011;53955;52.442;13.284;2023-04-01T14:14:07;9.70;;;7.00;;
67049;SDS011;53955;52.442;13.284;2023-04-01T14:16:52;9.70;;;7.10;;
67049;SDS011;53955;52.442;13.284;2023-04-01T14:19:31;9.03;;;6.80;;
67049;SDS011;53955;52.442;13.284;2023-04-01T14:22:12;10.87;;;7.53;;
67049;SDS011;53955;52.442;13.284;2023-04-01T14:25:03;10.63;;;6.57;;
67049;SDS011;53955;52.442;13.284;2023-04-01T14:28:04;9.27;;;6.30;;
67049;SDS011;53955;52.442;13.284;2023-04-01T14:30:51;10.90;;;6.90;;
67049;SDS011;53955;52.442;13.284;2023-04-01T14:33:41;8.67;;;6.30;;
67049;SDS011;53955;52.442;13.284;2023-04-01T14:36:35;7.90;;;5.87;;
67049;SDS011;53955;52.442;13.284;2023-04-01T14:39:33;9.43;;;7.10;;
67049;SDS011;53955;52.442;13.284;2023-04-01T14:42:14;9.33;;;6.50;;
67049;SDS011;53955;52.442;13.284;2023-04-01T14:44:52;8.93;;;6.20;;
67049;SDS011;53955;52.442;13.284;2023-04-01T14:47:44;10.03;;;6.53;;
67049;SDS011;53955;52.442;13.284;2023-04-01T14:50:17;7.83;;;5.77;;
67049;SDS011;53955;52.442;13.284;2023-04-01T14:52:54;8.37;;;5.67;;
67049;SDS011;53955;52.442;13.284;2023-04-01T14:55:27;8.77;;;5.97;;
67049;SDS011;53955;52.442;13.284;2023-04-01T14:57:58;10.83;;;6.67;;
67049;SDS011;53955;52.442;13.284;2023-04-01T15:00:31;8.67;;;6.60;;
67049;SDS011;53955;52.442;13.284;2023-04-01T15:03:14;9.17;;;6.50;;
67049;SDS011;53955;52.442;13.284;2023-04-01T15:05:46;8.50;;;6.00;;
67049;SDS011;53955;52.442;13.284;2023-04-01T15:08:17;8.77;;;5.97;;
67049;SDS011;53955;52.442;13.284;2023-04-01T15:10:53;8.57;;;6.00;;
67049;SDS011;53955;52.442;13.284;2023-04-01T15:13:43;8.07;;;5.50;;
67049;SDS011;53955;52.442;13.284;2023-04-01T15:16:23;8.93;;;6.13;;
67049;SDS011;53955;52.442;13.284;2023-04-01T15:18:56;7.27;;;5.70;;
67049;SDS011;53955;52.442;13.284;2023-04-01T15:21:37;7.70;;;5.80;;
67049;SDS011;53955;52.442;13.284;2023-04-01T15:24:18;8.67;;;6.00;;
67049;SDS011;53955;52.442;13.284;2023-04-01T15:26:55;9.27;;;6.10;;
67049;SDS011;53955;52.442;13.284;2023-04-01T15:29:50;8.40;;;5.27;;
67049;SDS011;53955;52.442;13.284;2023-04-01T15:32:27;7.77;;;5.67;;
67049;SDS011;53955;52.442;13.284;2023-04-01T15:35:00;7.83;;;5.60;;
67049;SDS011;53955;52.442;13.284;2023-04-01T15:37:36;9.20;;;5.83;;
67049;SDS011;53955;52.442;13.284;2023-04-01T15:40:15;8.00;;;5.97;;
67049;SDS011;53955;52.442;13.284;2023-04-01T15:42:51;7.67;;;5.73;;
67049;SDS011;53955;52.442;13.284;2023-04-01T15:45:31;8.70;;;6.07;;
67049;SDS011;53955;52.442;13.284;2023-04-01T15:48:13;9.07;;;6.57;;
67049;SDS011;53955;52.442;13.284;2023-04-01T15:50:58;8.53;;;5.90;;
67049;SDS011;53955;52.442;13.284;2023-04-01T15:53:35;8.70;;;5.53;;
67049;SDS011;53955;52.442;13.284;2023-04-01T15:56:16;6.97;;;5.63;;
67049;SDS011;53955;52.442;13.284;2023-04-01T15:58:54;7.07;;;5.60;;
67049;SDS011;53955;52.442;13.284;2023-04-01T16:01:31;7.80;;;5.60;;
67049;SDS011;53955;52.442;13.284;2023-04-01T16:04:07;7.53;;;5.57;;
67049;SDS011;53955;52.442;13.284;2023-04-01T16:06:55;8.80;;;4.80;;
67049;SDS011;53955;52.442;13.284;2023-04-01T16:09:33;7.30;;;4.13;;
67049;SDS011;53955;52.442;13.284;2023-04-01T16:12:18;9.03;;;5.87;;
67049;SDS011;53955;52.442;13.284;2023-04-01T16:14:56;6.67;;;4.77;;
67049;SDS011;53955;52.442;13.284;2023-04-01T16:17:36;7.83;;;5.10;;
67049;SDS011;53955;52.442;13.284;2023-04-01T16:20:16;6.80;;;4.60;;
67049;SDS011;53955;52.442;13.284;2023-04-01T16:22:48;6.67;;;4.63;;
67049;SDS011;53955;52.442;13.284;2023-04-01T16:25:19;9.00;;;5.73;;
67049;SDS011;53955;52.442;13.284;2023-04-01T16:27:55;7.70;;;6.00;;
67049;SDS011;53955;52.442;13.284;2023-04-01T16:30:34;7.97;;;6.03;;
67049;SDS011;53955;52.442;13.284;2023-04-01T16:33:03;6.67;;;5.37;;
67049;SDS011;53955;52.442;13.284;2023-04-01T16:35:40;7.70;;;5.80;;
67049;SDS011;53955;52.442;13.284;2023-04-01T16:38:13;9.80;;;6.67;;
67049;SDS011;53955;52.442;13.284;2023-04-01T16:40:46;10.10;;;6.30;;
67049;SDS011;53955;52.442;13.284;2023-04-01T16:43:20;11.53;;;6.60;;
67049;SDS011;53955;52.442;13.284;2023-04-01T16:48:58;9.30;;;5.83;;
67049;SDS011;53955;52.442;13.284;2023-04-01T16:51:32;7.73;;;5.47;;
67049;SDS011;53955;52.442;13.284;2023-04-01T16:54:06;8.17;;;6.07;;
67049;SDS011;53955;52.442;13.284;2023-04-01T16:56:42;8.93;;;5.73;;
67049;SDS011;53955;52.442;13.284;2023-04-01T16:59:14;7.47;;;5.63;;
67049;SDS011;53955;52.442;13.284;2023-04-01T17:01:48;7.37;;;4.67;;
67049;SDS011;53955;52.442;13.284;2023-04-01T17:04:19;7.00;;;5.30;;